createdAt,value
2019-05-05T00:00:02.421Z,5.80
2019-05-05T00:02:49.281Z,5.40
2019-05-05T00:05:35.360Z,5.77
2019-05-05T00:08:04.893Z,5.47
2019-05-05T00:11:10.669Z,5.77
2019-05-05T00:13:47.084Z,6.07
2019-05-05T00:16:34.962Z,5.47
2019-05-05T00:19:02.102Z,6.00
2019-05-05T00:21:29.575Z,6.27
2019-05-05T00:23:57.004Z,6.50
2019-05-05T00:26:24.547Z,6.73
2019-05-05T00:28:52.234Z,6.57
2019-05-05T00:31:19.669Z,6.63
2019-05-05T00:33:47.328Z,6.60
2019-05-05T00:36:15.132Z,6.63
2019-05-05T00:38:44.335Z,6.20
2019-05-05T00:41:14.863Z,6.67
2019-05-05T00:43:42.423Z,6.73
2019-05-05T00:46:19.419Z,6.13
2019-05-05T00:48:47.122Z,6.33
2019-05-05T00:51:15.176Z,6.60
2019-05-05T00:53:44.742Z,6.80
2019-05-05T00:56:13.859Z,6.97
2019-05-05T00:58:47.534Z,7.13
2019-05-05T01:01:34.719Z,6.93
2019-05-05T01:04:02.617Z,6.77
2019-05-05T01:06:30.940Z,7.57
2019-05-05T01:08:58.655Z,7.50
2019-05-05T01:11:26.121Z,7.17
2019-05-05T01:13:54.697Z,7.40
2019-05-05T01:16:24.569Z,7.90
2019-05-05T01:18:55.197Z,8.13
2019-05-05T01:21:24.362Z,8.17
2019-05-05T01:23:54.636Z,8.00
2019-05-05T01:26:21.802Z,7.80
2019-05-05T01:28:49.561Z,7.90
2019-05-05T01:31:18.543Z,8.20
2019-05-05T01:33:56.483Z,7.97
2019-05-05T01:36:24.286Z,8.00
2019-05-05T01:38:58.431Z,7.23
2019-05-05T01:41:35.607Z,8.13
2019-05-05T01:44:04.877Z,8.00
2019-05-05T01:46:32.785Z,9.03
2019-05-05T01:49:00.579Z,8.70
2019-05-05T01:51:28.211Z,9.03
2019-05-05T01:53:56.027Z,8.80
2019-05-05T01:56:24.708Z,10.17
2019-05-05T01:58:54.743Z,9.47
2019-05-05T02:01:24.531Z,9.47
2019-05-05T02:03:52.277Z,10.47
2019-05-05T02:06:19.679Z,9.47
2019-05-05T02:08:47.434Z,10.90
2019-05-05T02:11:15.704Z,10.00
2019-05-05T02:13:44.976Z,11.97
2019-05-05T02:16:12.485Z,11.07
2019-05-05T02:18:40.206Z,11.10
2019-05-05T02:21:08.057Z,9.63
2019-05-05T02:23:37.158Z,10.30
2019-05-05T02:26:06.255Z,10.30
2019-05-05T02:28:46.955Z,10.63
2019-05-05T02:31:21.025Z,13.37
2019-05-05T02:33:48.395Z,12.83
2019-05-05T02:36:16.128Z,10.17
2019-05-05T02:38:46.299Z,11.67
2019-05-05T02:41:15.508Z,11.57
2019-05-05T02:43:45.023Z,9.87
2019-05-05T02:46:35.636Z,9.63
2019-05-05T02:49:05.351Z,10.13
2019-05-05T02:51:35.603Z,9.93
2019-05-05T02:54:04.526Z,10.10
2019-05-05T02:56:43.670Z,13.07
2019-05-05T02:59:19.275Z,10.00
2019-05-05T03:01:50.761Z,9.80
2019-05-05T03:04:18.525Z,9.40
2019-05-05T03:06:49.944Z,9.30
2019-05-05T03:09:20.084Z,13.97
2019-05-05T03:11:48.545Z,9.67
2019-05-05T03:14:18.568Z,8.60
2019-05-05T03:16:45.981Z,8.73
2019-05-05T03:19:14.220Z,7.90
2019-05-05T03:21:44.046Z,7.73
2019-05-05T03:24:14.203Z,7.57
2019-05-05T03:26:44.237Z,9.07
2019-05-05T03:29:15.730Z,8.60
2019-05-05T03:31:45.919Z,7.67
2019-05-05T03:34:16.201Z,7.30
2019-05-05T03:36:44.201Z,7.83
2019-05-05T03:39:19.387Z,7.10
2019-05-05T03:42:09.822Z,7.23
2019-05-05T03:44:44.035Z,6.67
2019-05-05T03:47:13.957Z,7.00
2019-05-05T03:49:41.563Z,8.57
2019-05-05T03:52:09.961Z,7.10
2019-05-05T03:54:37.739Z,6.57
2019-05-05T03:57:08.684Z,6.67
2019-05-05T03:59:41.011Z,6.43
2019-05-05T04:02:30.206Z,11.10
2019-05-05T04:05:03.889Z,7.47
2019-05-05T04:07:33.397Z,6.57
2019-05-05T04:10:03.593Z,6.63
2019-05-05T04:12:34.452Z,6.17
2019-05-05T04:15:03.685Z,6.83
2019-05-05T04:18:10.032Z,6.27
2019-05-05T04:20:44.167Z,6.30
2019-05-05T04:23:13.994Z,6.17
2019-05-05T04:25:41.327Z,7.10
2019-05-05T04:28:08.977Z,6.80
2019-05-05T04:30:37.165Z,6.40
2019-05-05T04:33:05.891Z,6.37
2019-05-05T04:35:34.420Z,6.27
2019-05-05T04:38:04.124Z,7.10
2019-05-05T04:40:34.418Z,6.67
2019-05-05T04:43:03.908Z,6.70
2019-05-05T04:45:32.036Z,6.30
2019-05-05T04:48:06.654Z,6.33
2019-05-05T04:50:44.077Z,6.33
2019-05-05T04:53:17.465Z,6.47
2019-05-05T04:55:45.421Z,7.03
2019-05-05T04:58:13.740Z,7.43
2019-05-05T05:00:41.433Z,7.53
2019-05-05T05:03:34.691Z,7.07
2019-05-05T05:06:05.977Z,7.10
2019-05-05T05:08:33.862Z,7.10
2019-05-05T05:11:03.514Z,6.53
2019-05-05T05:13:34.592Z,6.10
2019-05-05T05:16:01.885Z,6.67
2019-05-05T05:18:29.556Z,6.03
2019-05-05T05:20:57.744Z,5.90
2019-05-05T05:23:25.446Z,5.63
2019-05-05T05:25:54.457Z,5.53
2019-05-05T05:28:23.617Z,5.93
2019-05-05T05:30:51.570Z,17.77
2019-05-05T05:33:19.600Z,5.70
2019-05-05T05:35:47.359Z,5.30
2019-05-05T05:38:15.063Z,4.97
2019-05-05T05:40:51.017Z,5.13
2019-05-05T05:43:25.352Z,5.80
2019-05-05T05:46:04.409Z,4.80
2019-05-05T05:48:43.353Z,4.53
2019-05-05T05:51:14.624Z,4.50
2019-05-05T05:53:43.936Z,4.60
2019-05-05T05:56:13.412Z,4.80
2019-05-05T05:58:41.122Z,5.03
2019-05-05T06:01:09.486Z,4.43
2019-05-05T06:03:37.177Z,4.50
2019-05-05T06:06:04.949Z,4.60
2019-05-05T06:08:34.108Z,4.90
2019-05-05T06:11:04.283Z,4.23
2019-05-05T06:13:33.486Z,4.30
2019-05-05T06:16:01.155Z,4.00
2019-05-05T06:18:28.932Z,4.40
2019-05-05T06:20:56.606Z,4.50
2019-05-05T06:23:24.561Z,5.93
2019-05-05T06:25:54.864Z,4.93
2019-05-05T06:28:23.721Z,4.23
2019-05-05T06:30:51.860Z,4.17
2019-05-05T06:33:19.572Z,4.00
2019-05-05T06:35:47.505Z,3.83
2019-05-05T06:38:15.424Z,3.57
2019-05-05T06:41:08.458Z,4.10
2019-05-05T06:43:58.599Z,3.93
2019-05-05T06:46:31.789Z,4.00
2019-05-05T06:49:00.698Z,4.27
2019-05-05T06:51:28.934Z,4.10
2019-05-05T06:53:57.115Z,4.10
2019-05-05T06:56:27.892Z,4.03
2019-05-05T06:58:59.285Z,4.30
2019-05-05T07:01:27.545Z,4.10
2019-05-05T07:03:55.878Z,4.40
2019-05-05T07:06:24.218Z,4.33
2019-05-05T07:08:54.577Z,4.40
2019-05-05T07:11:23.763Z,4.37
2019-05-05T07:13:53.684Z,4.77
2019-05-05T07:16:25.248Z,5.07
2019-05-05T07:18:55.702Z,4.70
2019-05-05T07:21:27.542Z,5.40
2019-05-05T07:23:56.650Z,5.57
2019-05-05T07:26:25.517Z,5.70
2019-05-05T07:28:54.739Z,6.47
2019-05-05T07:31:23.949Z,5.80
2019-05-05T07:33:54.512Z,5.07
2019-05-05T07:36:41.662Z,5.17
2019-05-05T07:39:11.162Z,5.60
2019-05-05T07:41:40.708Z,5.43
2019-05-05T07:44:22.311Z,5.57
2019-05-05T07:46:43.972Z,5.37
2019-05-05T07:49:13.935Z,5.63
2019-05-05T07:51:43.943Z,5.60
2019-05-05T07:54:11.236Z,5.50
2019-05-05T07:56:38.925Z,5.47
2019-05-05T07:59:06.933Z,5.10
2019-05-05T08:01:34.917Z,4.73
2019-05-05T08:04:04.499Z,4.90
2019-05-05T08:06:33.887Z,4.93
2019-05-05T08:09:03.953Z,4.70
2019-05-05T08:11:34.247Z,4.90
2019-05-05T08:14:04.005Z,5.10
2019-05-05T08:16:44.193Z,5.03
2019-05-05T08:19:45.957Z,4.90
2019-05-05T08:22:15.029Z,4.33
2019-05-05T08:25:04.685Z,4.37
2019-05-05T08:27:53.567Z,4.70
2019-05-05T08:30:46.423Z,4.87
2019-05-05T08:33:14.186Z,4.70
2019-05-05T08:35:41.865Z,4.53
2019-05-05T08:38:11.161Z,4.50
2019-05-05T08:40:39.395Z,4.47
2019-05-05T08:43:07.321Z,4.30
2019-05-05T08:45:36.054Z,4.30
2019-05-05T08:48:05.092Z,4.23
2019-05-05T08:50:34.808Z,4.60
2019-05-05T08:53:04.488Z,4.13
2019-05-05T08:55:33.921Z,4.20
2019-05-05T08:58:01.914Z,3.50
2019-05-05T09:00:29.567Z,3.60
2019-05-05T09:02:57.314Z,3.20
2019-05-05T09:05:25.726Z,3.10
2019-05-05T09:07:54.744Z,2.93
2019-05-05T09:10:23.667Z,2.90
2019-05-05T09:12:51.434Z,3.20
2019-05-05T09:15:19.030Z,4.73
2019-05-05T09:17:46.612Z,3.60
2019-05-05T09:20:14.345Z,3.00
2019-05-05T09:22:42.007Z,2.77
2019-05-05T09:25:29.682Z,2.60
2019-05-05T09:28:03.188Z,2.70
2019-05-05T09:30:36.543Z,2.70
2019-05-05T09:33:04.314Z,2.83
2019-05-05T09:35:34.157Z,2.67
2019-05-05T09:38:03.872Z,2.50
2019-05-05T09:40:37.082Z,2.30
2019-05-05T09:43:05.795Z,2.30
2019-05-05T09:45:33.703Z,2.20
2019-05-05T09:48:05.453Z,2.47
2019-05-05T09:50:34.683Z,2.50
2019-05-05T09:53:04.206Z,2.73
2019-05-05T09:55:33.656Z,3.23
2019-05-05T09:58:04.393Z,4.13
2019-05-05T10:00:35.522Z,3.03
2019-05-05T10:03:03.841Z,2.97
2019-05-05T10:05:31.623Z,2.70
2019-05-05T10:07:59.323Z,3.00
2019-05-05T10:10:27.324Z,3.20
2019-05-05T10:12:55.110Z,2.73
2019-05-05T10:15:22.977Z,2.60
2019-05-05T10:17:50.681Z,2.60
2019-05-05T10:20:18.928Z,2.40
2019-05-05T10:22:46.999Z,2.40
2019-05-05T10:25:49.449Z,2.80
2019-05-05T10:28:17.702Z,3.50
2019-05-05T10:30:45.446Z,2.53
2019-05-05T10:33:14.294Z,2.50
2019-05-05T10:35:43.728Z,2.97
2019-05-05T10:38:14.091Z,2.60
2019-05-05T10:40:41.514Z,2.40
2019-05-05T10:43:09.584Z,2.30
2019-05-05T10:45:37.607Z,2.30
2019-05-05T10:48:05.222Z,2.20
2019-05-05T10:50:34.115Z,2.60
2019-05-05T10:53:04.308Z,2.10
2019-05-05T10:55:34.656Z,2.10
2019-05-05T10:58:03.317Z,2.30
2019-05-05T11:01:04.215Z,2.40
2019-05-05T11:03:34.153Z,2.87
2019-05-05T11:06:01.771Z,2.20
2019-05-05T11:08:30.892Z,2.37
2019-05-05T11:10:58.720Z,2.00
2019-05-05T11:13:26.843Z,1.93
2019-05-05T11:15:54.979Z,1.93
2019-05-05T11:18:23.778Z,2.17
2019-05-05T11:20:52.006Z,5.50
2019-05-05T11:23:19.681Z,2.20
2019-05-05T11:25:47.321Z,2.20
2019-05-05T11:28:15.261Z,2.03
2019-05-05T11:30:44.067Z,2.23
2019-05-05T11:33:37.167Z,2.23
2019-05-05T11:36:29.797Z,3.27
2019-05-05T11:39:14.624Z,2.10
2019-05-05T11:41:43.914Z,2.00
2019-05-05T11:44:11.705Z,2.07
2019-05-05T11:46:39.411Z,1.90
2019-05-05T11:49:07.931Z,2.40
2019-05-05T11:51:35.607Z,1.80
2019-05-05T11:54:04.645Z,2.00
2019-05-05T11:56:34.685Z,1.70
2019-05-05T11:59:03.907Z,1.70
2019-05-05T12:01:31.768Z,3.00
2019-05-05T12:04:00.855Z,3.63
2019-05-05T12:06:28.682Z,2.97
2019-05-05T12:08:56.949Z,2.27
2019-05-05T12:11:24.703Z,2.13
2019-05-05T12:13:54.576Z,2.00
2019-05-05T12:16:34.514Z,3.57
2019-05-05T12:19:06.207Z,2.80
2019-05-05T12:21:33.935Z,1.90
2019-05-05T12:24:05.635Z,2.60
2019-05-05T12:26:47.686Z,2.40
2019-05-05T12:29:21.346Z,1.90
2019-05-05T12:31:51.512Z,2.53
2019-05-05T12:34:19.256Z,3.00
2019-05-05T12:36:47.065Z,3.00
2019-05-05T12:39:15.943Z,2.10
2019-05-05T12:41:43.964Z,2.30
2019-05-05T12:44:15.500Z,1.90
2019-05-05T12:46:51.765Z,1.70
2019-05-05T12:49:22.495Z,1.60
2019-05-05T12:51:49.577Z,1.80
2019-05-05T12:54:17.384Z,1.50
2019-05-05T12:56:45.342Z,1.50
2019-05-05T12:59:20.158Z,1.70
2019-05-05T13:01:49.863Z,1.57
2019-05-05T13:04:19.785Z,1.50
2019-05-05T13:06:47.792Z,1.87
2019-05-05T13:09:16.511Z,1.33
2019-05-05T13:11:49.329Z,2.80
2019-05-05T13:14:24.832Z,3.33
2019-05-05T13:16:56.109Z,1.83
2019-05-05T13:19:34.662Z,1.70
2019-05-05T13:22:25.537Z,1.70
2019-05-05T13:25:13.769Z,2.03
2019-05-05T13:27:43.984Z,1.60
2019-05-05T13:30:12.459Z,1.70
2019-05-05T13:32:40.573Z,1.73
2019-05-05T13:35:08.766Z,1.90
2019-05-05T13:37:36.615Z,2.00
2019-05-05T13:40:06.313Z,1.93
2019-05-05T13:42:35.779Z,1.70
2019-05-05T13:45:29.526Z,1.77
2019-05-05T13:47:57.695Z,1.80
2019-05-05T13:50:31.512Z,1.87
2019-05-05T13:52:59.546Z,1.60
2019-05-05T13:55:27.298Z,1.50
2019-05-05T13:57:55.410Z,1.67
2019-05-05T14:00:25.636Z,1.70
2019-05-05T14:02:55.342Z,1.40
2019-05-05T14:05:27.230Z,1.63
2019-05-05T14:07:55.473Z,1.40
2019-05-05T14:10:23.702Z,1.50
2019-05-05T14:12:51.515Z,1.47
2019-05-05T14:15:19.808Z,1.43
2019-05-05T14:17:48.038Z,1.40
2019-05-05T14:20:17.916Z,1.50
2019-05-05T14:22:47.044Z,1.70
2019-05-05T14:25:19.374Z,1.33
2019-05-05T14:27:47.560Z,1.30
2019-05-05T14:30:29.269Z,1.20
2019-05-05T14:32:56.901Z,1.40
2019-05-05T14:35:30.603Z,1.67
2019-05-05T14:38:01.264Z,3.87
2019-05-05T14:40:28.829Z,2.20
2019-05-05T14:42:56.523Z,2.83
2019-05-05T14:45:24.627Z,2.30
2019-05-05T14:47:53.519Z,2.10
2019-05-05T14:50:21.315Z,1.73
2019-05-05T14:52:49.056Z,1.60
2019-05-05T14:55:16.720Z,2.00
2019-05-05T14:57:44.361Z,1.70
2019-05-05T15:00:14.756Z,1.80
2019-05-05T15:02:43.848Z,1.60
2019-05-05T15:05:30.952Z,1.60
2019-05-05T15:08:07.841Z,1.60
2019-05-05T15:10:54.728Z,1.80
2019-05-05T15:13:24.273Z,2.00
2019-05-05T15:15:53.974Z,1.60
2019-05-05T15:18:23.956Z,1.40
2019-05-05T15:20:51.896Z,1.97
2019-05-05T15:23:20.229Z,1.63
2019-05-05T15:25:47.794Z,1.60
2019-05-05T15:28:15.900Z,1.50
2019-05-05T15:30:44.152Z,1.50
2019-05-05T15:33:13.656Z,1.60
2019-05-05T15:35:43.774Z,1.73
2019-05-05T15:38:13.796Z,1.60
2019-05-05T15:40:44.962Z,1.57
2019-05-05T15:43:14.265Z,1.77
2019-05-05T15:45:43.379Z,3.53
2019-05-05T15:48:11.376Z,1.80
2019-05-05T15:50:39.492Z,1.90
2019-05-05T15:53:07.221Z,1.50
2019-05-05T15:55:34.952Z,1.90
2019-05-05T15:58:03.605Z,5.67
2019-05-05T16:00:33.806Z,3.80
2019-05-05T16:03:04.143Z,1.67
2019-05-05T16:05:31.922Z,1.50
2019-05-05T16:07:59.871Z,1.47
2019-05-05T16:10:27.589Z,1.50
2019-05-05T16:12:56.890Z,2.00
2019-05-05T16:15:50.370Z,2.73
2019-05-05T16:18:35.377Z,3.17
2019-05-05T16:21:21.145Z,2.20
2019-05-05T16:23:54.329Z,1.70
2019-05-05T16:26:24.420Z,1.70
2019-05-05T16:28:55.046Z,1.60
2019-05-05T16:31:23.490Z,1.37
2019-05-05T16:33:51.000Z,1.70
2019-05-05T16:36:18.694Z,1.70
2019-05-05T16:38:46.646Z,2.00
2019-05-05T16:41:15.512Z,2.60
2019-05-05T16:43:44.237Z,2.47
2019-05-05T16:46:14.445Z,2.30
2019-05-05T16:48:43.773Z,2.00
2019-05-05T16:51:13.855Z,1.70
2019-05-05T16:53:43.246Z,1.90
2019-05-05T16:56:14.123Z,2.00
2019-05-05T16:58:41.941Z,1.87
2019-05-05T17:01:14.361Z,1.90
2019-05-05T17:03:45.316Z,2.83
2019-05-05T17:06:13.991Z,1.50
2019-05-05T17:08:41.683Z,1.40
2019-05-05T17:11:09.590Z,1.57
2019-05-05T17:14:00.009Z,1.80
2019-05-05T17:16:47.967Z,1.40
2019-05-05T17:19:33.856Z,1.20
2019-05-05T17:22:30.460Z,1.37
2019-05-05T17:24:59.938Z,2.03
2019-05-05T17:27:27.865Z,2.70
2019-05-05T17:29:56.339Z,3.43
2019-05-05T17:32:24.891Z,2.73
2019-05-05T17:34:54.117Z,2.20
2019-05-05T17:37:23.805Z,2.70
2019-05-05T17:39:57.277Z,1.90
2019-05-05T17:42:47.127Z,2.40
2019-05-05T17:45:27.229Z,2.13
2019-05-05T17:48:08.440Z,2.13
2019-05-05T17:50:54.537Z,1.90
2019-05-05T17:53:26.405Z,2.03
2019-05-05T17:55:55.005Z,2.00
2019-05-05T17:58:24.433Z,1.70
2019-05-05T18:00:56.788Z,1.93
2019-05-05T18:03:24.559Z,3.60
2019-05-05T18:06:14.231Z,2.30
2019-05-05T18:08:51.060Z,2.60
2019-05-05T18:11:25.395Z,2.43
2019-05-05T18:13:56.980Z,2.17
2019-05-05T18:16:26.928Z,2.10
2019-05-05T18:18:55.263Z,2.20
2019-05-05T18:21:23.627Z,2.10
2019-05-05T18:23:51.449Z,7.20
2019-05-05T18:26:19.532Z,6.23
2019-05-05T18:28:48.173Z,3.27
2019-05-05T18:31:16.039Z,2.63
2019-05-05T18:33:44.033Z,2.43
2019-05-05T18:36:14.032Z,2.30
2019-05-05T18:38:41.390Z,2.13
2019-05-05T18:41:15.004Z,1.83
2019-05-05T18:43:51.146Z,2.10
2019-05-05T18:46:18.831Z,2.17
2019-05-05T18:48:47.586Z,2.00
2019-05-05T18:51:15.188Z,2.10
2019-05-05T18:53:43.627Z,1.93
2019-05-05T18:56:11.785Z,2.33
2019-05-05T18:58:41.040Z,2.00
2019-05-05T19:01:30.871Z,2.17
2019-05-05T19:04:16.943Z,1.97
2019-05-05T19:07:00.957Z,1.83
2019-05-05T19:09:29.139Z,2.67
2019-05-05T19:11:57.664Z,4.80
2019-05-05T19:14:25.507Z,3.37
2019-05-05T19:16:55.620Z,2.70
2019-05-05T19:19:25.710Z,2.63
2019-05-05T19:21:57.812Z,2.60
2019-05-05T19:24:26.240Z,3.00
2019-05-05T19:26:55.982Z,2.90
2019-05-05T19:29:24.266Z,2.70
2019-05-05T19:31:54.742Z,2.63
2019-05-05T19:34:24.092Z,2.73
2019-05-05T19:36:51.943Z,3.17
2019-05-05T19:39:20.118Z,4.03
2019-05-05T19:41:50.366Z,6.40
2019-05-05T19:44:18.785Z,4.80
2019-05-05T19:46:51.996Z,3.27
2019-05-05T19:49:19.730Z,3.40
2019-05-05T19:51:48.008Z,3.27
2019-05-05T19:54:15.786Z,4.67
2019-05-05T19:56:44.851Z,3.43
2019-05-05T19:59:13.700Z,3.80
2019-05-05T20:01:45.021Z,4.13
2019-05-05T20:04:14.646Z,3.23
2019-05-05T20:06:44.404Z,3.30
2019-05-05T20:09:15.409Z,2.60
2019-05-05T20:11:43.937Z,2.40
2019-05-05T20:14:14.883Z,3.03
2019-05-05T20:17:01.243Z,2.47
2019-05-05T20:19:30.649Z,2.87
2019-05-05T20:21:58.280Z,2.47
2019-05-05T20:24:26.471Z,5.53
2019-05-05T20:26:55.351Z,4.50
2019-05-05T20:29:23.986Z,3.20
2019-05-05T20:31:52.265Z,3.10
2019-05-05T20:34:38.369Z,2.63
2019-05-05T20:37:10.882Z,2.67
2019-05-05T20:39:38.496Z,2.67
2019-05-05T20:42:08.041Z,2.50
2019-05-05T20:44:35.933Z,2.70
2019-05-05T20:47:04.519Z,2.63
2019-05-05T20:49:34.497Z,2.30
2019-05-05T20:52:03.749Z,2.30
2019-05-05T20:54:31.844Z,2.70
2019-05-05T20:56:59.914Z,2.27
2019-05-05T20:59:31.053Z,2.30
2019-05-05T21:01:57.680Z,2.27
2019-05-05T21:04:25.257Z,2.30
2019-05-05T21:06:54.281Z,2.50
2019-05-05T21:09:21.854Z,2.53
2019-05-05T21:11:49.414Z,2.57
2019-05-05T21:14:31.171Z,2.70
2019-05-05T21:16:49.005Z,3.07
2019-05-05T21:19:17.067Z,3.17
2019-05-05T21:21:48.629Z,3.37
2019-05-05T21:24:16.403Z,3.20
2019-05-05T21:26:55.347Z,2.93
2019-05-05T21:29:23.676Z,3.20
2019-05-05T21:31:51.574Z,2.90
2019-05-05T21:34:19.737Z,3.20
2019-05-05T21:36:47.973Z,3.00
2019-05-05T21:39:17.543Z,4.00
2019-05-05T21:41:45.074Z,4.00
2019-05-05T21:44:14.750Z,6.50
2019-05-05T21:46:43.755Z,4.53
2019-05-05T21:49:13.651Z,3.57
2019-05-05T21:52:19.172Z,3.47
2019-05-05T21:55:04.346Z,3.13
2019-05-05T21:57:53.134Z,3.77
2019-05-05T22:00:44.281Z,3.63
2019-05-05T22:03:18.264Z,3.53
2019-05-05T22:05:45.799Z,3.60
2019-05-05T22:08:14.321Z,3.77
2019-05-05T22:10:42.806Z,3.30
2019-05-05T22:13:10.391Z,2.97
2019-05-05T22:15:38.269Z,3.20
2019-05-05T22:18:06.733Z,3.37
2019-05-05T22:20:44.219Z,3.40
2019-05-05T22:23:14.413Z,4.37
2019-05-05T22:25:43.772Z,3.85
2019-05-05T22:28:11.398Z,3.90
2019-05-05T22:30:39.428Z,4.43
2019-05-05T22:33:07.307Z,4.13
2019-05-05T22:35:35.055Z,4.07
2019-05-05T22:38:05.776Z,3.77
2019-05-05T22:40:34.590Z,3.70
2019-05-05T22:43:03.676Z,4.17
2019-05-05T22:45:34.093Z,3.40
2019-05-05T22:48:01.417Z,3.60
2019-05-05T22:50:29.077Z,4.77
2019-05-05T22:52:58.266Z,4.20
2019-05-05T22:55:26.356Z,4.17
2019-05-05T22:57:54.547Z,3.80
2019-05-05T23:00:29.056Z,3.80
2019-05-05T23:03:04.315Z,3.67
2019-05-05T23:05:47.107Z,3.30
2019-05-05T23:08:14.702Z,3.30
2019-05-05T23:10:43.749Z,3.43
2019-05-05T23:13:13.563Z,3.43
2019-05-05T23:15:47.025Z,3.40
2019-05-05T23:18:25.652Z,3.80
2019-05-05T23:21:17.787Z,3.43
2019-05-05T23:24:03.741Z,3.20
2019-05-05T23:26:35.693Z,3.13
2019-05-05T23:29:02.660Z,3.10
2019-05-05T23:31:30.352Z,3.63
2019-05-05T23:33:59.193Z,3.23
2019-05-05T23:36:26.848Z,3.70
2019-05-05T23:38:55.031Z,3.07
2019-05-05T23:41:23.891Z,3.20
2019-05-05T23:43:54.300Z,3.07
2019-05-05T23:46:21.324Z,3.33
2019-05-05T23:48:49.221Z,3.47
2019-05-05T23:51:17.176Z,3.23
2019-05-05T23:53:45.058Z,3.13
2019-05-05T23:56:13.703Z,3.10
2019-05-05T23:58:43.914Z,3.27
